createdAt,value
2019-04-14T00:00:33.624Z,11.00
2019-04-14T00:01:56.646Z,11.00
2019-04-14T00:03:06.586Z,11.00
2019-04-14T00:04:16.136Z,11.00
2019-04-14T00:05:21.131Z,11.10
2019-04-14T00:06:26.605Z,11.00
2019-04-14T00:07:31.897Z,11.00
2019-04-14T00:08:37.253Z,11.00
2019-04-14T00:09:43.049Z,11.00
2019-04-14T00:10:48.656Z,11.00
2019-04-14T00:11:54.667Z,11.00
2019-04-14T00:13:00.061Z,11.00
2019-04-14T00:14:05.327Z,11.00
2019-04-14T00:15:23.422Z,11.00
2019-04-14T00:16:18.451Z,11.00
2019-04-14T00:17:23.828Z,11.00
2019-04-14T00:18:29.417Z,11.00
2019-04-14T00:19:34.898Z,11.00
2019-04-14T00:20:40.473Z,11.00
2019-04-14T00:21:45.437Z,11.00
2019-04-14T00:22:51.251Z,11.00
2019-04-14T00:23:56.620Z,10.90
2019-04-14T00:25:02.413Z,10.90
2019-04-14T00:26:31.554Z,10.90
2019-04-14T00:27:36.756Z,10.90
2019-04-14T00:28:42.553Z,10.90
2019-04-14T00:29:47.924Z,10.90
2019-04-14T00:30:53.423Z,10.90
2019-04-14T00:31:58.796Z,10.90
2019-04-14T00:33:06.178Z,10.90
2019-04-14T00:34:29.155Z,10.90
2019-04-14T00:35:39.186Z,10.90
2019-04-14T00:36:45.958Z,10.90
2019-04-14T00:38:08.507Z,10.80
2019-04-14T00:39:16.172Z,10.80
2019-04-14T00:40:29.598Z,10.80
2019-04-14T00:41:47.417Z,10.80
2019-04-14T00:43:09.115Z,10.80
2019-04-14T00:44:31.871Z,10.80
2019-04-14T00:45:46.476Z,10.80
2019-04-14T00:46:49.625Z,10.80
2019-04-14T00:48:03.367Z,10.80
2019-04-14T00:49:02.829Z,10.80
2019-04-14T00:50:07.996Z,10.80
2019-04-14T00:51:13.401Z,10.70
2019-04-14T00:52:18.998Z,10.70
2019-04-14T00:53:23.534Z,10.70
2019-04-14T00:54:28.267Z,10.70
2019-04-14T00:55:33.568Z,10.70
2019-04-14T00:56:39.009Z,10.70
2019-04-14T00:57:44.157Z,10.70
2019-04-14T00:58:49.709Z,10.70
2019-04-14T00:59:55.242Z,10.70
2019-04-14T01:01:00.767Z,10.70
2019-04-14T01:02:05.718Z,10.70
2019-04-14T01:03:11.292Z,10.80
2019-04-14T01:04:16.528Z,10.80
2019-04-14T01:05:21.762Z,10.80
2019-04-14T01:06:27.303Z,10.80
2019-04-14T01:07:32.730Z,10.80
2019-04-14T01:08:38.069Z,10.80
2019-04-14T01:09:44.136Z,10.80
2019-04-14T01:10:49.754Z,10.80
2019-04-14T01:11:55.286Z,10.80
2019-04-14T01:13:00.624Z,10.80
2019-04-14T01:14:05.933Z,10.80
2019-04-14T01:15:11.532Z,10.70
2019-04-14T01:16:20.168Z,10.70
2019-04-14T01:17:22.500Z,10.80
2019-04-14T01:18:27.640Z,10.70
2019-04-14T01:19:33.111Z,10.70
2019-04-14T01:20:38.522Z,10.70
2019-04-14T01:21:43.593Z,10.70
2019-04-14T01:22:48.872Z,10.70
2019-04-14T01:23:54.446Z,10.70
2019-04-14T01:24:59.973Z,10.70
2019-04-14T01:26:05.036Z,10.70
2019-04-14T01:27:10.254Z,10.70
2019-04-14T01:28:15.749Z,10.70
2019-04-14T01:29:20.973Z,10.70
2019-04-14T01:30:26.286Z,10.70
2019-04-14T01:31:31.704Z,10.60
2019-04-14T01:32:37.228Z,10.60
2019-04-14T01:33:42.317Z,10.60
2019-04-14T01:34:47.656Z,10.60
2019-04-14T01:35:53.154Z,10.60
2019-04-14T01:37:07.276Z,10.60
2019-04-14T01:38:12.542Z,10.50
2019-04-14T01:39:17.628Z,10.60
2019-04-14T01:40:22.832Z,10.50
2019-04-14T01:41:28.207Z,10.50
2019-04-14T01:42:33.414Z,10.50
2019-04-14T01:43:38.554Z,10.50
2019-04-14T01:44:43.848Z,10.50
2019-04-14T01:46:00.670Z,10.50
2019-04-14T01:46:54.625Z,10.50
2019-04-14T01:47:59.566Z,10.50
2019-04-14T01:49:05.025Z,10.50
2019-04-14T01:50:10.528Z,10.50
2019-04-14T01:51:26.649Z,10.50
2019-04-14T01:52:50.058Z,10.50
2019-04-14T01:54:08.513Z,10.50
2019-04-14T01:55:17.805Z,10.50
2019-04-14T01:56:25.208Z,10.50
2019-04-14T01:57:35.007Z,10.50
2019-04-14T01:58:44.692Z,10.50
2019-04-14T01:59:50.333Z,10.40
2019-04-14T02:01:12.707Z,10.40
2019-04-14T02:02:20.480Z,10.40
2019-04-14T02:03:25.950Z,10.40
2019-04-14T02:04:31.259Z,10.40
2019-04-14T02:05:36.442Z,10.40
2019-04-14T02:06:41.908Z,10.40
2019-04-14T02:07:47.251Z,10.40
2019-04-14T02:08:52.268Z,10.40
2019-04-14T02:09:57.555Z,10.40
2019-04-14T02:11:03.000Z,10.40
2019-04-14T02:12:08.465Z,10.40
2019-04-14T02:13:13.568Z,10.40
2019-04-14T02:14:19.051Z,10.40
2019-04-14T02:15:24.427Z,10.40
2019-04-14T02:16:37.858Z,10.40
2019-04-14T02:17:35.155Z,10.40
2019-04-14T02:18:40.566Z,10.40
2019-04-14T02:19:46.013Z,10.40
2019-04-14T02:20:51.206Z,10.40
2019-04-14T02:21:56.365Z,10.40
2019-04-14T02:23:01.836Z,10.40
2019-04-14T02:24:07.116Z,10.40
2019-04-14T02:25:12.065Z,10.40
2019-04-14T02:26:17.658Z,10.40
2019-04-14T02:27:23.149Z,10.40
2019-04-14T02:28:28.882Z,10.40
2019-04-14T02:29:34.005Z,10.40
2019-04-14T02:30:47.009Z,10.40
2019-04-14T02:32:09.972Z,10.40
2019-04-14T02:35:37.213Z,10.40
2019-04-14T02:36:41.669Z,10.40
2019-04-14T02:41:10.655Z,10.30
2019-04-14T02:42:20.776Z,10.30
2019-04-14T02:43:25.177Z,10.30
2019-04-14T02:45:35.513Z,10.30
2019-04-14T02:46:49.611Z,10.30
2019-04-14T02:47:53.842Z,10.30
2019-04-14T02:48:53.357Z,10.30
2019-04-14T02:50:01.775Z,10.30
2019-04-14T02:51:05.795Z,10.30
2019-04-14T02:52:14.388Z,10.30
2019-04-14T02:53:15.638Z,10.30
2019-04-14T02:54:32.960Z,10.30
2019-04-14T02:55:21.490Z,10.20
2019-04-14T02:57:41.663Z,10.20
2019-04-14T02:59:49.701Z,10.20
2019-04-14T03:01:07.008Z,10.20
2019-04-14T03:03:16.869Z,10.20
2019-04-14T03:05:22.304Z,10.10
2019-04-14T03:06:25.360Z,10.10
2019-04-14T03:07:40.205Z,10.10
2019-04-14T03:08:51.392Z,10.10
2019-04-14T03:09:46.689Z,10.10
2019-04-14T03:10:53.965Z,10.10
2019-04-14T03:12:01.675Z,10.10
2019-04-14T03:13:18.667Z,10.10
2019-04-14T03:14:19.724Z,10.10
2019-04-14T03:16:33.416Z,10.10
2019-04-14T03:17:38.260Z,10.10
2019-04-14T03:18:44.121Z,10.10
2019-04-14T03:20:07.020Z,10.10
2019-04-14T03:22:28.934Z,10.10
2019-04-14T03:23:53.428Z,10.10
2019-04-14T03:24:46.574Z,10.10
2019-04-14T03:26:12.010Z,10.10
2019-04-14T03:27:30.906Z,10.10
2019-04-14T03:29:43.298Z,10.00
2019-04-14T03:33:48.994Z,10.00
2019-04-14T03:35:50.963Z,10.00
2019-04-14T03:37:46.959Z,10.00
2019-04-14T03:38:50.358Z,10.00
2019-04-14T03:39:52.018Z,10.00
2019-04-14T03:41:04.205Z,10.00
2019-04-14T03:42:00.587Z,10.00
2019-04-14T03:43:11.597Z,9.90
2019-04-14T03:44:25.282Z,10.00
2019-04-14T03:45:28.421Z,10.00
2019-04-14T03:46:36.181Z,9.90
2019-04-14T03:48:55.812Z,9.90
2019-04-14T03:49:45.261Z,9.90
2019-04-14T03:50:56.447Z,9.90
2019-04-14T03:51:57.807Z,9.90
2019-04-14T03:53:23.305Z,9.90
2019-04-14T03:54:03.252Z,9.90
2019-04-14T03:55:09.368Z,9.90
2019-04-14T03:56:04.272Z,9.90
2019-04-14T03:57:06.336Z,9.90
2019-04-14T03:58:13.051Z,9.90
2019-04-14T03:59:17.766Z,9.90
2019-04-14T04:00:22.594Z,9.90
2019-04-14T04:01:28.002Z,9.90
2019-04-14T04:02:33.723Z,9.90
2019-04-14T04:03:39.227Z,9.90
2019-04-14T04:04:44.513Z,9.90
2019-04-14T04:05:49.961Z,9.90
2019-04-14T04:06:55.407Z,9.90
2019-04-14T04:08:00.323Z,9.90
2019-04-14T04:09:08.298Z,9.90
2019-04-14T04:10:14.242Z,9.90
2019-04-14T04:11:19.347Z,9.90
2019-04-14T04:12:24.697Z,9.90
2019-04-14T04:13:30.129Z,9.90
2019-04-14T04:14:35.678Z,9.90
2019-04-14T04:15:41.199Z,9.90
2019-04-14T04:17:03.581Z,9.90
2019-04-14T04:18:13.413Z,9.90
2019-04-14T04:19:35.937Z,9.90
2019-04-14T04:20:57.313Z,9.90
2019-04-14T04:22:19.338Z,9.90
2019-04-14T04:23:31.466Z,9.80
2019-04-14T04:24:41.084Z,9.80
2019-04-14T04:26:06.172Z,9.80
2019-04-14T04:27:13.500Z,9.80
2019-04-14T04:28:36.389Z,9.80
2019-04-14T04:29:46.260Z,9.80
2019-04-14T04:30:53.638Z,9.80
2019-04-14T04:32:03.494Z,9.70
2019-04-14T04:33:26.401Z,9.80
2019-04-14T04:34:33.694Z,9.70
2019-04-14T04:35:43.620Z,9.70
2019-04-14T04:37:01.880Z,9.70
2019-04-14T04:38:18.109Z,9.70
2019-04-14T04:39:30.187Z,9.70
2019-04-14T04:40:35.372Z,9.70
2019-04-14T04:41:40.744Z,9.70
2019-04-14T04:42:45.821Z,9.70
2019-04-14T04:43:51.716Z,9.70
2019-04-14T04:44:57.404Z,9.70
2019-04-14T04:46:02.762Z,9.70
2019-04-14T04:47:07.782Z,9.70
2019-04-14T04:48:13.142Z,9.70
2019-04-14T04:49:22.599Z,9.70
2019-04-14T04:50:24.284Z,9.70
2019-04-14T04:51:29.039Z,9.70
2019-04-14T04:52:34.349Z,9.70
2019-04-14T04:53:39.817Z,9.70
2019-04-14T04:54:44.988Z,9.70
2019-04-14T04:55:50.382Z,9.70
2019-04-14T04:56:55.870Z,9.70
2019-04-14T04:58:01.365Z,9.60
2019-04-14T04:59:06.159Z,9.70
2019-04-14T05:00:11.428Z,9.60
2019-04-14T05:01:16.737Z,9.70
2019-04-14T05:02:22.102Z,9.60
2019-04-14T05:03:27.563Z,9.60
2019-04-14T05:04:32.948Z,9.70
2019-04-14T05:06:13.969Z,9.60
2019-04-14T05:07:18.800Z,9.60
2019-04-14T05:08:24.158Z,9.70
2019-04-14T05:09:38.570Z,9.60
2019-04-14T05:10:48.196Z,9.60
2019-04-14T05:12:11.041Z,9.60
2019-04-14T05:13:16.171Z,9.60
2019-04-14T05:14:39.057Z,9.60
2019-04-14T05:15:45.125Z,9.60
2019-04-14T05:16:50.682Z,9.60
2019-04-14T05:17:55.937Z,9.60
2019-04-14T05:19:12.268Z,9.60
2019-04-14T05:20:07.388Z,9.60
2019-04-14T05:21:12.731Z,9.60
2019-04-14T05:22:19.192Z,9.60
2019-04-14T05:23:23.570Z,9.70
2019-04-14T05:24:29.054Z,9.60
2019-04-14T05:25:34.135Z,9.70
2019-04-14T05:26:39.466Z,9.70
2019-04-14T05:27:45.175Z,9.70
2019-04-14T05:28:50.671Z,9.70
2019-04-14T05:29:55.822Z,9.70
2019-04-14T05:31:01.269Z,9.70
2019-04-14T05:32:06.651Z,9.80
2019-04-14T05:33:12.079Z,9.80
2019-04-14T05:34:17.302Z,9.80
2019-04-14T05:35:22.734Z,9.80
2019-04-14T05:36:28.112Z,9.80
2019-04-14T05:37:33.323Z,9.80
2019-04-14T05:38:38.634Z,9.90
2019-04-14T05:39:44.065Z,9.80
2019-04-14T05:40:49.650Z,9.90
2019-04-14T05:42:00.601Z,9.90
2019-04-14T05:43:02.393Z,9.90
2019-04-14T05:44:07.915Z,9.90
2019-04-14T05:45:13.359Z,9.90
2019-04-14T05:46:18.536Z,9.90
2019-04-14T05:47:24.071Z,10.00
2019-04-14T05:48:29.415Z,10.00
2019-04-14T05:49:41.091Z,10.00
2019-04-14T05:50:40.508Z,10.00
2019-04-14T05:51:45.909Z,10.00
2019-04-14T05:52:51.477Z,10.00
2019-04-14T05:53:56.647Z,10.00
2019-04-14T05:55:02.369Z,10.10
2019-04-14T05:56:07.953Z,10.10
2019-04-14T05:57:13.388Z,10.10
2019-04-14T05:58:18.574Z,10.10
2019-04-14T05:59:24.273Z,10.10
2019-04-14T06:00:29.981Z,10.20
2019-04-14T06:01:34.984Z,10.20
2019-04-14T06:02:39.958Z,10.20
2019-04-14T06:03:45.381Z,10.20
2019-04-14T06:04:50.399Z,10.20
2019-04-14T06:05:55.124Z,10.20
2019-04-14T06:06:59.735Z,10.20
2019-04-14T06:08:04.550Z,10.20
2019-04-14T06:09:09.333Z,10.20
2019-04-14T06:10:13.968Z,10.30
2019-04-14T06:11:18.457Z,10.30
2019-04-14T06:12:23.211Z,10.30
2019-04-14T06:13:27.692Z,10.30
2019-04-14T06:14:32.172Z,10.30
2019-04-14T06:15:36.655Z,10.30
2019-04-14T06:16:41.130Z,10.30
2019-04-14T06:17:45.684Z,10.30
2019-04-14T06:18:50.277Z,10.40
2019-04-14T06:19:54.750Z,10.40
2019-04-14T06:20:59.524Z,10.40
2019-04-14T06:22:04.033Z,10.40
2019-04-14T06:23:08.507Z,10.40
2019-04-14T06:24:13.040Z,10.50
2019-04-14T06:25:17.502Z,10.50
2019-04-14T06:26:21.974Z,10.50
2019-04-14T06:27:26.668Z,10.50
2019-04-14T06:28:31.194Z,10.50
2019-04-14T06:29:35.708Z,10.50
2019-04-14T06:30:41.898Z,10.60
2019-04-14T06:31:53.827Z,10.60
2019-04-14T06:32:59.956Z,10.60
2019-04-14T06:34:18.176Z,10.60
2019-04-14T06:35:26.988Z,10.60
2019-04-14T06:36:41.894Z,10.60
2019-04-14T06:37:53.729Z,10.70
2019-04-14T06:38:59.846Z,10.70
2019-04-14T06:40:07.148Z,10.70
2019-04-14T06:41:13.299Z,10.70
2019-04-14T06:42:17.773Z,10.70
2019-04-14T06:43:22.276Z,10.70
2019-04-14T06:44:26.883Z,10.70
2019-04-14T06:45:32.004Z,10.70
2019-04-14T06:46:36.524Z,10.70
2019-04-14T06:47:41.019Z,10.70
2019-04-14T06:48:45.522Z,10.70
2019-04-14T06:49:50.036Z,10.70
2019-04-14T06:50:54.566Z,10.70
2019-04-14T06:51:59.062Z,10.80
2019-04-14T06:53:03.581Z,10.80
2019-04-14T06:54:08.128Z,10.80
2019-04-14T06:55:12.631Z,10.80
2019-04-14T06:56:17.143Z,10.80
2019-04-14T06:57:21.652Z,10.80
2019-04-14T06:58:26.177Z,10.80
2019-04-14T06:59:30.743Z,10.80
2019-04-14T07:00:35.255Z,10.80
2019-04-14T07:01:40.037Z,10.90
2019-04-14T07:02:45.565Z,10.90
2019-04-14T07:03:50.783Z,10.90
2019-04-14T07:04:55.276Z,10.90
2019-04-14T07:06:00.214Z,11.00
2019-04-14T07:07:04.996Z,11.00
2019-04-14T07:08:09.545Z,11.00
2019-04-14T07:09:14.053Z,11.10
2019-04-14T07:10:18.611Z,11.10
2019-04-14T07:11:23.244Z,11.10
2019-04-14T07:12:27.773Z,11.20
2019-04-14T07:13:32.238Z,11.20
2019-04-14T07:14:36.701Z,11.30
2019-04-14T07:15:41.197Z,11.30
2019-04-14T07:16:45.691Z,11.30
2019-04-14T07:17:50.297Z,11.40
2019-04-14T07:18:54.772Z,11.40
2019-04-14T07:20:02.244Z,11.50
2019-04-14T07:21:05.665Z,11.50
2019-04-14T07:22:10.153Z,11.50
2019-04-14T07:23:14.649Z,11.60
2019-04-14T07:24:19.131Z,11.60
2019-04-14T07:25:23.696Z,11.60
2019-04-14T07:26:28.411Z,11.70
2019-04-14T07:27:32.899Z,11.70
2019-04-14T07:28:37.455Z,11.70
2019-04-14T07:29:46.544Z,11.80
2019-04-14T07:30:55.674Z,11.80
2019-04-14T07:32:01.797Z,11.80
2019-04-14T07:33:07.918Z,11.80
2019-04-14T07:34:17.256Z,11.80
2019-04-14T07:35:23.387Z,11.90
2019-04-14T07:36:35.359Z,11.90
2019-04-14T07:37:44.452Z,12.00
2019-04-14T07:38:53.543Z,12.00
2019-04-14T07:39:59.711Z,12.00
2019-04-14T07:41:14.661Z,12.00
2019-04-14T07:42:37.065Z,12.00
2019-04-14T07:43:43.303Z,12.00
2019-04-14T07:44:49.519Z,12.10
2019-04-14T07:46:04.478Z,12.10
2019-04-14T07:47:16.632Z,12.10
2019-04-14T07:48:22.767Z,12.10
2019-04-14T07:49:44.078Z,12.10
2019-04-14T07:50:50.283Z,12.10
2019-04-14T07:52:12.717Z,12.10
2019-04-14T07:53:18.861Z,12.20
2019-04-14T07:54:30.807Z,12.10
2019-04-14T07:55:40.549Z,12.20
2019-04-14T07:56:46.782Z,12.20
2019-04-14T07:57:58.875Z,12.20
2019-04-14T07:59:11.100Z,12.20
2019-04-14T08:00:32.215Z,12.20
2019-04-14T08:01:41.353Z,12.30
2019-04-14T08:02:53.530Z,12.30
2019-04-14T08:04:14.903Z,12.30
2019-04-14T08:05:23.700Z,12.30
2019-04-14T08:06:28.281Z,12.30
2019-04-14T08:07:32.833Z,12.40
2019-04-14T08:08:37.328Z,12.40
2019-04-14T08:09:41.816Z,12.40
2019-04-14T08:10:46.699Z,12.40
2019-04-14T08:11:51.312Z,12.50
2019-04-14T08:12:55.858Z,12.50
2019-04-14T08:14:00.434Z,12.60
2019-04-14T08:15:06.799Z,12.60
2019-04-14T08:16:11.296Z,12.70
2019-04-14T08:17:15.802Z,12.70
2019-04-14T08:18:20.272Z,12.80
2019-04-14T08:19:24.784Z,12.80
2019-04-14T08:20:29.339Z,12.90
2019-04-14T08:21:33.851Z,12.90
2019-04-14T08:22:38.393Z,12.90
2019-04-14T08:23:42.906Z,12.90
2019-04-14T08:24:47.390Z,13.00
2019-04-14T08:25:51.870Z,13.00
2019-04-14T08:26:56.378Z,13.00
2019-04-14T08:28:00.933Z,13.00
2019-04-14T08:29:05.569Z,13.00
2019-04-14T08:30:10.542Z,13.10
2019-04-14T08:31:15.087Z,13.10
2019-04-14T08:32:19.600Z,13.10
2019-04-14T08:33:24.080Z,13.20
2019-04-14T08:34:28.643Z,13.20
2019-04-14T08:35:33.117Z,13.20
2019-04-14T08:36:37.599Z,13.30
2019-04-14T08:37:42.200Z,13.30
2019-04-14T08:38:46.681Z,13.30
2019-04-14T08:39:51.313Z,13.40
2019-04-14T08:40:55.813Z,13.40
2019-04-14T08:42:02.107Z,13.40
2019-04-14T08:43:08.265Z,13.40
2019-04-14T08:44:20.553Z,13.50
2019-04-14T08:45:29.249Z,13.50
2019-04-14T08:46:50.541Z,13.50
2019-04-14T08:48:24.036Z,13.60
2019-04-14T08:49:48.124Z,13.60
2019-04-14T08:50:54.253Z,13.70
2019-04-14T08:52:03.404Z,13.80
2019-04-14T08:53:09.581Z,13.80
2019-04-14T08:54:21.655Z,13.90
2019-04-14T08:55:27.863Z,14.00
2019-04-14T08:56:50.294Z,14.00
2019-04-14T08:58:05.121Z,14.10
2019-04-14T08:59:13.676Z,14.20
2019-04-14T09:00:19.879Z,14.30
2019-04-14T09:01:37.643Z,14.40
2019-04-14T09:03:00.195Z,14.50
2019-04-14T09:04:15.464Z,14.60
2019-04-14T09:05:36.811Z,14.70
2019-04-14T09:06:45.412Z,14.70
2019-04-14T09:07:57.461Z,14.80
2019-04-14T09:09:12.552Z,14.80
2019-04-14T09:10:18.769Z,14.90
2019-04-14T09:11:36.393Z,14.90
2019-04-14T09:12:42.520Z,14.90
2019-04-14T09:13:47.080Z,15.00
2019-04-14T09:14:57.177Z,15.00
2019-04-14T09:15:58.146Z,15.00
2019-04-14T09:17:02.637Z,15.00
2019-04-14T09:18:07.223Z,15.10
2019-04-14T09:19:11.789Z,15.10
2019-04-14T09:20:16.385Z,15.10
2019-04-14T09:21:20.857Z,15.10
2019-04-14T09:22:25.404Z,15.20
2019-04-14T09:23:29.933Z,15.20
2019-04-14T09:24:34.504Z,15.30
2019-04-14T09:25:39.118Z,15.40
2019-04-14T09:26:43.653Z,15.50
2019-04-14T09:27:48.140Z,15.60
2019-04-14T09:28:52.621Z,15.70
2019-04-14T09:29:57.135Z,15.90
2019-04-14T09:31:01.619Z,16.00
2019-04-14T09:32:08.035Z,16.20
2019-04-14T09:33:12.604Z,16.40
2019-04-14T09:34:17.086Z,16.50
2019-04-14T09:35:21.674Z,16.70
2019-04-14T09:36:26.155Z,16.80
2019-04-14T09:37:30.653Z,17.00
2019-04-14T09:38:35.128Z,17.20
2019-04-14T09:39:39.659Z,17.30
2019-04-14T09:40:44.222Z,17.50
2019-04-14T09:41:48.713Z,17.60
2019-04-14T09:42:53.224Z,17.80
2019-04-14T09:43:57.697Z,17.90
2019-04-14T09:45:02.181Z,18.10
2019-04-14T09:46:06.669Z,18.20
2019-04-14T09:47:11.161Z,18.30
2019-04-14T09:48:16.323Z,18.40
2019-04-14T09:49:20.844Z,18.40
2019-04-14T09:50:25.332Z,18.50
2019-04-14T09:51:29.819Z,18.60
2019-04-14T09:52:34.383Z,18.60
2019-04-14T09:53:38.976Z,18.70
2019-04-14T09:54:43.458Z,18.80
2019-04-14T09:55:47.986Z,18.90
2019-04-14T09:56:52.630Z,18.90
2019-04-14T09:57:57.099Z,19.00
2019-04-14T09:59:01.599Z,19.10
2019-04-14T10:00:07.589Z,19.20
2019-04-14T10:01:12.073Z,19.30
2019-04-14T10:02:16.711Z,19.40
2019-04-14T10:03:21.200Z,19.50
2019-04-14T10:04:25.780Z,19.60
2019-04-14T10:05:30.305Z,19.70
2019-04-14T10:06:34.925Z,19.80
2019-04-14T10:08:43.618Z,20.00
2019-04-14T10:09:48.197Z,20.10
2019-04-14T10:10:52.822Z,20.20
2019-04-14T10:11:57.454Z,20.30
2019-04-14T10:13:01.936Z,20.40
2019-04-14T10:14:06.616Z,20.50
2019-04-14T10:15:11.387Z,20.70
2019-04-14T10:16:15.884Z,20.70
2019-04-14T10:17:20.357Z,20.90
2019-04-14T10:18:24.858Z,21.00
2019-04-14T10:19:29.362Z,21.10
2019-04-14T10:20:33.871Z,21.20
2019-04-14T10:21:38.421Z,21.30
2019-04-14T10:22:42.927Z,21.30
2019-04-14T10:23:47.402Z,21.40
2019-04-14T10:24:51.920Z,21.40
2019-04-14T10:25:56.396Z,21.50
2019-04-14T10:27:00.896Z,21.60
2019-04-14T10:28:05.464Z,21.60
2019-04-14T10:29:10.016Z,21.70
2019-04-14T10:30:14.661Z,21.80
2019-04-14T10:31:19.160Z,21.80
2019-04-14T10:32:23.633Z,21.90
2019-04-14T10:33:28.114Z,22.00
2019-04-14T10:34:32.611Z,22.10
2019-04-14T10:35:37.110Z,22.20
2019-04-14T10:36:41.598Z,22.40
2019-04-14T10:37:46.100Z,22.50
2019-04-14T10:38:50.626Z,22.60
2019-04-14T10:39:55.270Z,22.80
2019-04-14T10:40:59.930Z,22.90
2019-04-14T10:42:04.613Z,22.90
2019-04-14T10:43:09.151Z,23.00
2019-04-14T10:44:13.650Z,23.00
2019-04-14T10:45:18.593Z,23.10
2019-04-14T10:46:23.176Z,23.00
2019-04-14T10:47:27.676Z,23.10
2019-04-14T10:48:32.277Z,23.00
2019-04-14T10:49:36.798Z,23.00
2019-04-14T10:50:41.276Z,23.00
2019-04-14T10:51:45.754Z,22.90
2019-04-14T10:52:50.262Z,22.90
2019-04-14T10:53:54.744Z,22.80
2019-04-14T10:54:59.297Z,22.80
2019-04-14T10:56:03.886Z,22.70
2019-04-14T10:57:08.359Z,22.60
2019-04-14T10:58:12.867Z,22.50
2019-04-14T10:59:17.368Z,22.40
2019-04-14T11:00:21.910Z,22.30
2019-04-14T11:01:26.418Z,22.20
2019-04-14T11:02:31.040Z,22.10
2019-04-14T11:03:35.616Z,22.00
2019-04-14T11:04:40.170Z,21.90
2019-04-14T11:05:46.303Z,21.80
2019-04-14T11:07:01.329Z,21.60
2019-04-14T11:08:05.939Z,21.50
2019-04-14T11:09:14.514Z,21.40
2019-04-14T11:10:19.849Z,21.30
2019-04-14T11:11:24.401Z,21.20
2019-04-14T11:12:28.936Z,21.10
2019-04-14T11:13:33.443Z,20.90
2019-04-14T11:14:37.962Z,20.80
2019-04-14T11:15:42.453Z,20.70
2019-04-14T11:16:47.146Z,20.60
2019-04-14T11:17:51.696Z,20.50
2019-04-14T11:18:56.305Z,20.40
2019-04-14T11:20:00.868Z,20.20
2019-04-14T11:21:05.390Z,20.10
2019-04-14T11:22:10.046Z,20.00
2019-04-14T11:23:14.674Z,19.80
2019-04-14T11:24:19.320Z,19.70
2019-04-14T11:25:23.797Z,19.50
2019-04-14T11:26:28.579Z,19.40
2019-04-14T11:27:33.191Z,19.30
2019-04-14T11:28:37.706Z,19.20
2019-04-14T11:29:42.196Z,19.10
2019-04-14T11:30:46.738Z,19.00
2019-04-14T11:31:55.601Z,18.90
2019-04-14T11:33:01.802Z,18.80
2019-04-14T11:34:06.630Z,18.60
2019-04-14T11:35:21.839Z,18.60
2019-04-14T11:36:28.085Z,18.50
2019-04-14T11:37:40.307Z,18.40
2019-04-14T11:38:49.210Z,18.30
2019-04-14T11:39:53.873Z,18.20
2019-04-14T11:41:00.037Z,18.10
2019-04-14T11:42:04.603Z,18.10
2019-04-14T11:43:09.108Z,18.00
2019-04-14T11:44:14.081Z,17.90
2019-04-14T11:45:19.151Z,17.90
2019-04-14T11:46:23.813Z,17.80
2019-04-14T11:47:28.315Z,17.70
2019-04-14T11:48:32.952Z,17.70
2019-04-14T11:49:37.535Z,17.60
2019-04-14T11:50:42.207Z,17.50
2019-04-14T11:51:55.191Z,17.50
2019-04-14T11:52:53.058Z,17.40
2019-04-14T11:53:57.539Z,17.40
2019-04-14T11:55:02.032Z,17.30
2019-04-14T11:56:06.608Z,17.30
2019-04-14T11:57:11.386Z,17.20
2019-04-14T11:58:16.235Z,17.20
2019-04-14T11:59:22.347Z,17.10
2019-04-14T12:00:44.668Z,17.10
2019-04-14T12:01:53.756Z,17.00
2019-04-14T12:03:05.882Z,17.00
2019-04-14T12:04:28.127Z,17.00
2019-04-14T12:05:34.241Z,16.90
2019-04-14T12:06:48.905Z,16.90
2019-04-14T12:07:55.024Z,16.90
2019-04-14T12:09:01.258Z,16.80
2019-04-14T12:10:08.759Z,16.80
2019-04-14T12:11:13.460Z,16.70
2019-04-14T12:12:17.963Z,16.70
2019-04-14T12:13:22.438Z,16.70
2019-04-14T12:14:26.927Z,16.60
2019-04-14T12:15:34.318Z,16.60
2019-04-14T12:16:37.710Z,16.60
2019-04-14T12:17:42.277Z,16.60
2019-04-14T12:18:46.927Z,16.60
2019-04-14T12:19:51.426Z,16.50
2019-04-14T12:20:55.915Z,16.50
2019-04-14T12:22:08.280Z,16.50
2019-04-14T12:23:06.784Z,16.50
2019-04-14T12:24:11.278Z,16.50
2019-04-14T12:25:15.770Z,16.40
2019-04-14T12:26:20.320Z,16.40
2019-04-14T12:27:24.860Z,16.40
2019-04-14T12:28:29.371Z,16.40
2019-04-14T12:29:34.815Z,16.40
2019-04-14T12:30:39.914Z,16.30
2019-04-14T12:31:46.433Z,16.30
2019-04-14T12:32:51.048Z,16.30
2019-04-14T12:33:55.527Z,16.30
2019-04-14T12:35:00.041Z,16.30
2019-04-14T12:36:07.597Z,16.30
2019-04-14T12:37:12.077Z,16.30
2019-04-14T12:38:16.563Z,16.30
2019-04-14T12:39:23.758Z,16.20
2019-04-14T12:40:28.414Z,16.20
2019-04-14T12:41:35.423Z,16.20
2019-04-14T12:42:44.542Z,16.20
2019-04-14T12:43:53.604Z,16.20
2019-04-14T12:45:08.759Z,16.20
2019-04-14T12:46:33.072Z,16.20
2019-04-14T12:47:53.770Z,16.20
2019-04-14T12:48:59.901Z,16.20
2019-04-14T12:50:16.666Z,16.20
2019-04-14T12:51:28.596Z,16.20
2019-04-14T12:52:33.077Z,16.20
2019-04-14T12:53:37.657Z,16.20
2019-04-14T12:54:42.162Z,16.20
2019-04-14T12:55:46.645Z,16.10
2019-04-14T12:56:51.115Z,16.10
2019-04-14T12:57:59.934Z,16.10
2019-04-14T12:59:09.037Z,16.10
2019-04-14T13:00:16.121Z,16.10
2019-04-14T13:01:22.302Z,16.10
2019-04-14T13:02:28.453Z,16.10
2019-04-14T13:03:33.420Z,16.10
2019-04-14T13:04:37.949Z,16.10
2019-04-14T13:05:42.565Z,16.10
2019-04-14T13:06:47.042Z,16.10
2019-04-14T13:07:51.530Z,16.10
2019-04-14T13:08:56.100Z,16.10
2019-04-14T13:10:00.592Z,16.10
2019-04-14T13:11:05.479Z,16.10
2019-04-14T13:12:10.432Z,16.10
2019-04-14T13:13:15.083Z,16.10
2019-04-14T13:14:19.563Z,16.10
2019-04-14T13:15:24.048Z,16.10
2019-04-14T13:16:28.651Z,16.10
2019-04-14T13:17:33.134Z,16.10
2019-04-14T13:18:37.664Z,16.10
2019-04-14T13:19:42.979Z,16.10
2019-04-14T13:20:47.518Z,16.10
2019-04-14T13:21:52.028Z,16.10
2019-04-14T13:22:56.528Z,16.10
2019-04-14T13:24:01.012Z,16.10
2019-04-14T13:25:05.830Z,16.00
2019-04-14T13:26:10.319Z,16.00
2019-04-14T13:27:14.818Z,16.00
2019-04-14T13:28:19.342Z,16.00
2019-04-14T13:29:23.814Z,16.00
2019-04-14T13:30:32.872Z,15.90
2019-04-14T13:31:37.357Z,15.90
2019-04-14T13:32:41.839Z,15.90
2019-04-14T13:33:46.371Z,15.90
2019-04-14T13:34:51.096Z,15.80
2019-04-14T13:35:55.593Z,15.90
2019-04-14T13:37:00.075Z,15.70
2019-04-14T13:38:04.910Z,15.80
2019-04-14T13:39:12.533Z,15.80
2019-04-14T13:40:15.900Z,15.80
2019-04-14T13:41:20.414Z,15.90
2019-04-14T13:42:24.910Z,15.90
2019-04-14T13:43:29.441Z,15.90
2019-04-14T13:44:33.967Z,15.90
2019-04-14T13:45:38.444Z,15.80
2019-04-14T13:46:42.914Z,15.90
2019-04-14T13:47:47.506Z,15.80
2019-04-14T13:48:52.067Z,15.90
2019-04-14T13:49:56.557Z,15.90
2019-04-14T13:51:01.737Z,15.90
2019-04-14T13:52:06.248Z,15.90
2019-04-14T13:53:10.718Z,15.90
2019-04-14T13:54:15.293Z,15.90
2019-04-14T13:55:19.865Z,15.90
2019-04-14T13:56:24.421Z,15.90
2019-04-14T13:57:28.918Z,15.80
2019-04-14T13:58:33.422Z,15.80
2019-04-14T13:59:37.913Z,15.80
2019-04-14T14:00:42.447Z,15.80
2019-04-14T14:01:46.958Z,15.80
2019-04-14T14:02:51.444Z,15.80
2019-04-14T14:03:55.933Z,15.80
2019-04-14T14:05:00.398Z,15.80
2019-04-14T14:06:05.326Z,15.80
2019-04-14T14:07:09.822Z,15.80
2019-04-14T14:08:14.326Z,15.80
2019-04-14T14:09:18.846Z,15.70
2019-04-14T14:10:23.394Z,15.80
2019-04-14T14:11:45.811Z,15.70
2019-04-14T14:12:51.954Z,15.70
2019-04-14T14:13:58.080Z,15.70
2019-04-14T14:15:20.441Z,15.70
2019-04-14T14:16:29.518Z,15.70
2019-04-14T14:17:35.619Z,15.70
2019-04-14T14:18:47.756Z,15.70
2019-04-14T14:19:56.805Z,15.70
2019-04-14T14:21:18.706Z,15.70
2019-04-14T14:22:27.538Z,15.70
2019-04-14T14:23:36.478Z,15.70
2019-04-14T14:24:54.392Z,15.70
2019-04-14T14:26:06.455Z,15.70
2019-04-14T14:27:11.159Z,15.70
2019-04-14T14:28:15.656Z,15.70
2019-04-14T14:29:20.118Z,15.70
2019-04-14T14:30:24.925Z,15.70
2019-04-14T14:31:29.407Z,15.70
2019-04-14T14:32:35.562Z,15.70
2019-04-14T14:33:40.047Z,15.70
2019-04-14T14:34:44.539Z,15.70
2019-04-14T14:35:48.999Z,15.70
2019-04-14T14:36:53.477Z,15.60
2019-04-14T14:37:57.980Z,15.60
2019-04-14T14:39:02.524Z,15.60
2019-04-14T14:40:07.890Z,15.70
2019-04-14T14:41:14.052Z,15.70
2019-04-14T14:42:18.529Z,15.70
2019-04-14T14:43:23.058Z,15.70
2019-04-14T14:44:31.677Z,15.70
2019-04-14T14:45:40.847Z,15.70